Taos Ski Valley, NM (87525)

6:25 AM MST on December 26, 2014 (GMT -0700)
Canon | Change Station
CLOSE
Current Station
Personal Weather Station
Location: Taos, NM
Elevation: 7001 ft
Nearby Weather Stations
Active Advisory: Winter Storm Warning Active Notice: Public Information Statement

Elev 7001 ft 36.39 °N, 105.56 °W | Updated 9 minutes ago

Mostly Cloudy
Mostly Cloudy
18.9 °F
Feels Like 19 °F
N
0.0
Wind Variable Wind from South

Today
High -- | Low -- °F
--% Chance of Precip.
Yesterday
High -- | Low -- °F
Precip. -- in
7:12 AM 4:53 PM
Waxing Crescent, 26% visible
Pressure 29.70 in
Visibility 10.0 miles
Clouds Clear
Windchill 19 °F
Dew Point 12 °F
Humidity 74%
Rainfall 0.00 in
Snow Depth Not available.
UV 0 out of 12
Pollen .10 out of 12
Air Quality Not available.
Flu Activity Not available.
METAR KSKX 261315Z AUTO 00000KT 10SM CLR M09/M12 A2970 RMK AO1

More Conditions Fewer Conditions

Pressure 29.70 in
Visibility 10.0 miles
Clouds Clear
Windchill 19 °F
Dew Point 12 °F
Humidity 74%
Rainfall 0.00 in
Snow Depth Not available.
UV 0 out of 12
Pollen .10 out of 12
Air Quality Not available.
Flu Activity Not available.
METAR KSKX 261315Z AUTO 00000KT 10SM CLR M09/M12 A2970 RMK AO1

More Conditions Fewer Conditions

Nowcast | as of 4:22 am MST on December 26, 2014

Snow and fog will continue through early morning. Snow and fog will continue across Interstate 25 near Raton...Raton Pass...and the Colorado line...or from mile marker 430 to mile marker 460. Snow and fog in Santa Fe County will continue near Glorieta Pass...and near Tesuque...terrero...Cowles...Pecos...and near Hyde Memorial State Park. In Union County...snow and fog will drift east along highways 64 and 87...and highways 56 and 412 toward Des Moines... Grenville...Mount Dora...and Clayton. Expect snowfall up to an additional inch...with another inch locally over the higher country. Visibilities will be locally reduced in freezing fog. Elsewhere... expect snowfall up to an inch locally in scattered snow showers through early morning. Fog and snow on roads will create slick and icy spots...especially on bridges...over culverts...and in sheltered areas.

×

10-Day Weather Forecast

Almanac

Astronomy

Dec. 26, 2014 Rise Set
Actual Time
Civil Twilight
Nautical Twilight
Astronomical Twilight
Moon
Length of Visible Light
Length of Day
Tomorrow will be .
, % of the Moon is Illuminated

Today's Extremes

State Highs State Lows

Community

WunderPhotos

Upload Photos

1,780,592 photos uploaded!

WunderBlogs® & News

Nearby

Air Quality

  Air Quality AQ Index Pollutant
Not available.

Snow Depth

Station Depth Elevation

Earthquake Activity

City Distance Mag. Time & Date
Minimum magnitude displayed is 2.5.

Coastal Water Temperatures

Place Temperature

Nearby Weather Stations